Terminal Aerodrome Forecast
Issued by NWS

Home | Current Version | Previous Version | Text Only | Print | Product List | Glossary On
Versions: 1 2 3 4 5 6 7 8 9 10 11 12 13 14 15 16
000
FTUS41 KBOX 181120
TAFACK
TAF
KACK 181120Z 1812/1912 VRB03KT P6SM VCSH OVC100
     FM181400 13004KT P6SM OVC040
     FM182100 15007KT P6SM OVC030
     FM190400 22008KT P6SM BKN035
     FM190800 27009KT P6SM BKN030
     FM190900 27010KT P6SM BKN015
     FM191000 27010KT P6SM BKN025=

USA.gov is the U.S. government's official web portal to all federal, state and local government web resources and services.